CheckWX is a tool to help pilots better visualize weather data.  It is not intended as a substitute for an official pre-flight weather briefing.

09:55:48 UTC

CYLT METAR
Alert Airport
Alert, Canada
Current

16 hours ago

CYLT 201800Z 33024G29KT 1/4SM -SN +BLSN OVC003 M29/M33 A2971 RMK ST8 LAST OBS/NEXT 211000 UTC SLP067
Observed
Mar-20 @ 18:00 UTC
Wind
  • 330° at 24 KTS
  • Gusting to 29 KTS
Visibility
1/4 SM
Flight Rules
LIFR
Conditions
Light Snow, Heavy Blowing Heavy Snow
Cloud Levels
  • Overcast at 300' AGL
Temperature
-29°C / -20°F
Dewpoint
-33°C / -27°F
Humidity
68%
Altimeter
29.71" Hg
Pressure
1006.7 hPa
Previous

17 hours ago

CYLT 201700Z 31021G26KT 1/4SM -SN +BLSN OVC002 M30/M33 A2975 RMK ST8 SLP082
Observed
Mar-20 @ 17:00 UTC
Wind
  • 310° at 21 KTS
  • Gusting to 26 KTS
Visibility
1/4 SM
Flight Rules
LIFR
Conditions
Light Snow, Heavy Blowing Heavy Snow
Cloud Levels
  • Overcast at 200' AGL
Temperature
-30°C / -22°F
Dewpoint
-33°C / -27°F
Humidity
75%
Altimeter
29.75" Hg
Pressure
1008.2 hPa
Previous

18 hours ago

CYLT 201600Z 33026G31KT 1/4SM -SN +BLSN OVC002 M30/M33 A2978 RMK ST8 SLP091
Observed
Mar-20 @ 16:00 UTC
Wind
  • 330° at 26 KTS
  • Gusting to 31 KTS
Visibility
1/4 SM
Flight Rules
LIFR
Conditions
Light Snow, Heavy Blowing Heavy Snow
Cloud Levels
  • Overcast at 200' AGL
Temperature
-30°C / -22°F
Dewpoint
-33°C / -27°F
Humidity
75%
Altimeter
29.78" Hg
Pressure
1009.1 hPa